createdAt,value
2023-11-21T00:00:18.147Z,99697.77
2023-11-21T00:03:12.638Z,99703.58
2023-11-21T00:05:44.852Z,99703.44
2023-11-21T00:08:16.918Z,99710.45
2023-11-21T00:10:49.514Z,99708.33
2023-11-21T00:13:20.155Z,99705.90
2023-11-21T00:15:52.833Z,99703.88
2023-11-21T00:18:25.716Z,99700.38
2023-11-21T00:20:56.254Z,99698.19
2023-11-21T00:23:28.343Z,99704.92
2023-11-21T00:26:00.696Z,99711.20
2023-11-21T00:28:33.711Z,99721.36
2023-11-21T00:31:06.329Z,99722.95
2023-11-21T00:33:38.648Z,99725.05
2023-11-21T00:36:12.425Z,99729.53
2023-11-21T00:38:45.649Z,99728.46
2023-11-21T00:41:18.696Z,99729.70
2023-11-21T00:43:51.882Z,99733.89
2023-11-21T00:46:25.400Z,99732.19
2023-11-21T00:48:57.490Z,99732.77
2023-11-21T00:51:29.560Z,99733.64
2023-11-21T00:54:02.309Z,99732.48
2023-11-21T00:56:35.043Z,99737.36
2023-11-21T00:59:08.107Z,99736.89
2023-11-21T01:01:40.499Z,99736.91
2023-11-21T01:04:13.281Z,99735.33
2023-11-21T01:06:46.370Z,99733.53
2023-11-21T01:09:19.543Z,99733.04
2023-11-21T01:11:53.125Z,99733.88
2023-11-21T01:14:27.565Z,99739.23
2023-11-21T01:16:59.697Z,99742.22
2023-11-21T01:19:32.167Z,99742.42
2023-11-21T01:22:05.000Z,99742.23
2023-11-21T01:24:37.858Z,99747.11
2023-11-21T01:27:10.524Z,99750.38
2023-11-21T01:29:42.727Z,99756.00
2023-11-21T01:32:15.153Z,99756.98
2023-11-21T01:34:48.479Z,99758.11
2023-11-21T01:37:20.515Z,99760.12
2023-11-21T01:39:52.736Z,99768.40
2023-11-21T01:42:24.834Z,99762.79
2023-11-21T01:44:57.012Z,99763.42
2023-11-21T01:47:29.361Z,99760.13
2023-11-21T01:50:01.952Z,99759.53
2023-11-21T01:52:34.254Z,99758.42
2023-11-21T01:55:09.537Z,99767.70
2023-11-21T01:57:41.781Z,99771.88
2023-11-21T02:00:17.384Z,99771.08
2023-11-21T02:02:50.816Z,99774.95
2023-11-21T02:05:23.680Z,99775.70
2023-11-21T02:07:55.843Z,99782.09
2023-11-21T02:10:28.317Z,99785.02
2023-11-21T02:13:03.560Z,99786.55
2023-11-21T02:15:35.776Z,99787.98
2023-11-21T02:18:11.220Z,99787.92
2023-11-21T02:20:43.929Z,99792.95
2023-11-21T02:23:15.604Z,99793.73
2023-11-21T02:25:48.340Z,99799.40
2023-11-21T02:28:27.059Z,99797.38
2023-11-21T02:31:00.422Z,99801.99
2023-11-21T02:33:34.899Z,99804.86
2023-11-21T02:36:07.936Z,99810.27
2023-11-21T02:38:40.040Z,99818.74
2023-11-21T02:41:12.221Z,99820.70
2023-11-21T02:43:44.405Z,99822.45
2023-11-21T02:46:16.635Z,99821.50
2023-11-21T02:48:48.676Z,99819.20
2023-11-21T02:51:20.879Z,99823.40
2023-11-21T02:53:53.143Z,99833.81
2023-11-21T02:56:25.149Z,99832.36
2023-11-21T02:58:59.096Z,99828.65
2023-11-21T03:01:31.759Z,99829.26
2023-11-21T03:04:02.994Z,99830.17
2023-11-21T03:06:35.851Z,99824.38
2023-11-21T03:09:09.005Z,99831.09
2023-11-21T03:11:43.858Z,99827.99
2023-11-21T03:14:16.712Z,99830.94
2023-11-21T03:16:50.837Z,99835.98
2023-11-21T03:19:24.469Z,99840.38
2023-11-21T03:21:56.754Z,99842.02
2023-11-21T03:24:29.827Z,99844.66
2023-11-21T03:27:02.014Z,99845.57
2023-11-21T03:29:34.081Z,99847.25
2023-11-21T03:32:08.116Z,99852.19
2023-11-21T03:34:58.830Z,99855.92
2023-11-21T03:37:31.655Z,99859.44
2023-11-21T03:40:04.683Z,99867.48
2023-11-21T03:42:36.886Z,99868.57
2023-11-21T03:45:13.438Z,99871.51
2023-11-21T03:47:46.602Z,99875.11
2023-11-21T03:50:19.435Z,99874.23
2023-11-21T03:52:49.864Z,99866.44
2023-11-21T03:55:22.045Z,99869.85
2023-11-21T03:57:56.680Z,99869.48
2023-11-21T04:00:30.006Z,99871.93
2023-11-21T04:03:02.462Z,99871.73
2023-11-21T04:05:34.826Z,99867.65
2023-11-21T04:08:07.347Z,99862.67
2023-11-21T04:10:39.711Z,99864.65
2023-11-21T04:13:11.902Z,99871.20
2023-11-21T04:15:44.320Z,99871.35
2023-11-21T04:18:16.516Z,99876.09
2023-11-21T04:20:48.481Z,99874.58
2023-11-21T04:23:20.576Z,99877.97
2023-11-21T04:25:55.462Z,99877.44
2023-11-21T04:28:27.861Z,99881.86
2023-11-21T04:30:59.935Z,99883.80
2023-11-21T04:33:32.641Z,99885.75
2023-11-21T04:36:03.229Z,99892.80
2023-11-21T04:38:35.320Z,99897.70
2023-11-21T04:41:07.703Z,99903.38
2023-11-21T04:43:39.803Z,99906.38
2023-11-21T04:46:12.525Z,99910.31
2023-11-21T04:48:43.468Z,99913.91
2023-11-21T04:51:15.634Z,99922.02
2023-11-21T04:53:47.717Z,99925.42
2023-11-21T04:56:19.852Z,99929.41
2023-11-21T04:58:52.190Z,99935.69
2023-11-21T05:01:24.259Z,99939.25
2023-11-21T05:03:58.130Z,99938.51
2023-11-21T05:06:30.322Z,99942.05
2023-11-21T05:09:02.682Z,99945.66
2023-11-21T05:11:34.766Z,99946.00
2023-11-21T05:14:08.435Z,99951.11
2023-11-21T05:16:41.143Z,99953.24
2023-11-21T05:19:14.120Z,99960.20
2023-11-21T05:21:47.413Z,99959.48
2023-11-21T05:24:19.656Z,99962.48
2023-11-21T05:26:51.938Z,99969.31
2023-11-21T05:29:26.740Z,99971.13
2023-11-21T05:32:02.193Z,99980.05
2023-11-21T05:34:34.389Z,99981.90
2023-11-21T05:37:06.765Z,99983.64
2023-11-21T05:39:39.111Z,99987.42
2023-11-21T05:42:11.933Z,99988.10
2023-11-21T05:44:43.922Z,99987.73
2023-11-21T05:47:16.048Z,99986.13
2023-11-21T05:49:51.690Z,99982.06
2023-11-21T05:52:24.047Z,99987.59
2023-11-21T05:54:56.319Z,99986.56
2023-11-21T05:57:28.422Z,99986.98
2023-11-21T06:00:01.000Z,99984.76
2023-11-21T06:02:33.410Z,99994.10
2023-11-21T06:05:06.480Z,100001.45
2023-11-21T06:07:39.712Z,100012.92
2023-11-21T06:10:15.432Z,100017.30
2023-11-21T06:12:49.834Z,100021.24
2023-11-21T06:15:23.544Z,100026.91
2023-11-21T06:17:55.887Z,100030.48
2023-11-21T06:20:28.479Z,100034.27
2023-11-21T06:22:59.223Z,100037.29
2023-11-21T06:25:34.238Z,100047.36
2023-11-21T06:28:06.441Z,100052.02
2023-11-21T06:30:39.218Z,100053.43
2023-11-21T06:33:11.779Z,100056.80
2023-11-21T06:35:44.273Z,100057.89
2023-11-21T06:38:16.359Z,100063.63
2023-11-21T06:40:48.518Z,100072.94
2023-11-21T06:43:20.663Z,100085.64
2023-11-21T06:45:52.697Z,100084.77
2023-11-21T06:48:24.843Z,100088.13
2023-11-21T06:50:57.053Z,100092.42
2023-11-21T06:53:29.072Z,100093.84
2023-11-21T06:56:01.663Z,100093.83
2023-11-21T06:58:34.935Z,100100.09
2023-11-21T07:01:08.230Z,100098.53
2023-11-21T07:03:40.734Z,100104.04
2023-11-21T07:06:14.566Z,100104.94
2023-11-21T07:08:48.420Z,100113.69
2023-11-21T07:11:20.780Z,100110.27
2023-11-21T07:13:53.209Z,100112.61
2023-11-21T07:16:26.597Z,100116.35
2023-11-21T07:18:59.284Z,100121.55
2023-11-21T07:21:31.901Z,100126.73
2023-11-21T07:24:05.039Z,100129.61
2023-11-21T07:26:38.995Z,100131.39
2023-11-21T07:29:12.792Z,100133.89
2023-11-21T07:31:45.788Z,100135.34
2023-11-21T07:34:18.208Z,100137.36
2023-11-21T07:36:50.666Z,100143.98
2023-11-21T07:39:23.001Z,100144.87
2023-11-21T07:41:55.203Z,100146.29
2023-11-21T07:44:29.528Z,100143.41
2023-11-21T07:47:01.882Z,100148.41
2023-11-21T07:49:34.665Z,100151.63
2023-11-21T07:52:07.417Z,100152.54
2023-11-21T07:54:38.649Z,100156.86
2023-11-21T07:57:14.441Z,100160.80
2023-11-21T07:59:47.325Z,100158.09
2023-11-21T08:02:19.019Z,100159.72
2023-11-21T08:04:51.596Z,100163.48
2023-11-21T08:07:22.880Z,100164.92
2023-11-21T08:09:55.292Z,100170.81
2023-11-21T08:12:28.795Z,100177.27
2023-11-21T08:15:01.705Z,100177.11
2023-11-21T08:17:34.356Z,100180.14
2023-11-21T08:20:10.483Z,100184.79
2023-11-21T08:22:43.018Z,100184.95
2023-11-21T08:25:16.048Z,100187.99
2023-11-21T08:27:46.617Z,100183.86
2023-11-21T08:30:21.001Z,100184.58
2023-11-21T08:32:55.144Z,100193.86
2023-11-21T08:35:27.814Z,100195.65
2023-11-21T08:37:58.540Z,100198.69
2023-11-21T08:40:31.044Z,100199.59
2023-11-21T08:43:05.787Z,100206.74
2023-11-21T08:45:38.637Z,100213.20
2023-11-21T08:48:12.675Z,100220.37
2023-11-21T08:50:45.094Z,100223.94
2023-11-21T08:53:17.947Z,100221.80
2023-11-21T08:55:49.368Z,100226.98
2023-11-21T08:58:21.731Z,100231.64
2023-11-21T09:00:54.439Z,100236.45
2023-11-21T09:03:26.946Z,100234.30
2023-11-21T09:05:59.866Z,100238.08
2023-11-21T09:08:33.246Z,100241.46
2023-11-21T09:11:07.329Z,100239.85
2023-11-21T09:13:39.619Z,100241.45
2023-11-21T09:16:12.398Z,100239.67
2023-11-21T09:18:46.215Z,100240.03
2023-11-21T09:21:18.979Z,100244.85
2023-11-21T09:23:52.065Z,100249.67
2023-11-21T09:26:24.487Z,100251.99
2023-11-21T09:28:57.781Z,100257.73
2023-11-21T09:31:30.212Z,100258.08
2023-11-21T09:34:03.483Z,100260.02
2023-11-21T09:36:35.653Z,100265.04
2023-11-21T09:39:10.550Z,100265.23
2023-11-21T09:41:49.706Z,100262.90
2023-11-21T09:44:32.099Z,100262.52
2023-11-21T09:47:09.692Z,100267.17
2023-11-21T09:49:42.915Z,100265.76
2023-11-21T09:52:26.397Z,100267.73
2023-11-21T09:55:00.437Z,100273.08
2023-11-21T09:57:34.190Z,100275.23
2023-11-21T10:00:12.927Z,100271.10
2023-11-21T10:02:46.117Z,100273.96
2023-11-21T10:05:25.567Z,100282.33
2023-11-21T10:08:00.027Z,100285.73
2023-11-21T10:10:35.394Z,100284.78
2023-11-21T10:13:13.613Z,100283.16
2023-11-21T10:15:49.453Z,100287.14
2023-11-21T10:18:24.361Z,100290.20
2023-11-21T10:20:58.394Z,100289.66
2023-11-21T10:23:32.159Z,100292.11
2023-11-21T10:26:11.324Z,100288.74
2023-11-21T10:29:02.004Z,100286.83
2023-11-21T10:31:35.836Z,100288.80
2023-11-21T10:34:19.478Z,100295.21
2023-11-21T10:36:52.008Z,100296.82
2023-11-21T10:39:24.814Z,100296.99
2023-11-21T10:41:59.320Z,100296.98
2023-11-21T10:44:33.498Z,100292.11
2023-11-21T10:47:06.852Z,100298.74
2023-11-21T10:49:42.370Z,100301.05
2023-11-21T10:52:18.572Z,100305.88
2023-11-21T10:54:50.762Z,100305.52
2023-11-21T10:57:24.985Z,100307.35
2023-11-21T10:59:58.991Z,100305.73
2023-11-21T11:02:35.304Z,100308.26
2023-11-21T11:05:13.141Z,100315.94
2023-11-21T11:07:46.988Z,100320.73
2023-11-21T11:10:22.137Z,100320.20
2023-11-21T11:12:55.256Z,100322.34
2023-11-21T11:15:28.400Z,100325.17
2023-11-21T11:18:01.782Z,100325.46
2023-11-21T11:20:38.380Z,100324.20
2023-11-21T11:23:27.010Z,100330.14
2023-11-21T11:26:12.883Z,100331.94
2023-11-21T11:28:49.807Z,100331.98
2023-11-21T11:31:40.917Z,100336.45
2023-11-21T11:34:25.676Z,100336.61
2023-11-21T11:37:03.603Z,100339.10
2023-11-21T11:39:40.479Z,100337.80
2023-11-21T11:42:16.520Z,100346.52
2023-11-21T11:44:55.948Z,100358.30
2023-11-21T11:47:35.110Z,100366.86
2023-11-21T11:50:14.278Z,100370.27
2023-11-21T11:52:48.059Z,100375.10
2023-11-21T11:55:22.496Z,100379.23
2023-11-21T11:57:57.379Z,100382.61
2023-11-21T12:00:42.050Z,100391.33
2023-11-21T12:03:15.721Z,100400.59
2023-11-21T12:05:54.070Z,100404.70
2023-11-21T12:08:32.319Z,100408.27
2023-11-21T12:11:05.649Z,100407.20
2023-11-21T12:13:39.222Z,100404.27
2023-11-21T12:16:13.095Z,100405.00
2023-11-21T12:18:45.964Z,100407.85
2023-11-21T12:21:18.628Z,100407.83
2023-11-21T12:23:51.199Z,100411.91
2023-11-21T12:26:25.313Z,100413.00
2023-11-21T12:28:57.977Z,100415.23
2023-11-21T12:31:30.998Z,100415.83
2023-11-21T12:34:03.821Z,100417.32
2023-11-21T12:36:36.182Z,100420.17
2023-11-21T12:39:10.268Z,100421.01
2023-11-21T12:41:42.604Z,100419.10
2023-11-21T12:44:17.586Z,100422.70
2023-11-21T12:46:51.269Z,100422.27
2023-11-21T12:49:24.959Z,100429.76
2023-11-21T12:51:57.031Z,100433.19
2023-11-21T12:54:31.102Z,100435.52
2023-11-21T12:57:06.488Z,100431.01
2023-11-21T12:59:40.905Z,100431.95
2023-11-21T13:02:16.017Z,100433.89
2023-11-21T13:04:56.224Z,100440.63
2023-11-21T13:07:28.396Z,100450.85
2023-11-21T13:10:01.028Z,100456.41
2023-11-21T13:12:33.263Z,100468.27
2023-11-21T13:15:11.161Z,100477.63
2023-11-21T13:17:43.655Z,100478.03
2023-11-21T13:20:17.611Z,100480.02
2023-11-21T13:22:55.072Z,100490.14
2023-11-21T13:25:28.667Z,100488.57
2023-11-21T13:28:02.782Z,100495.10
2023-11-21T13:30:35.890Z,100495.89
2023-11-21T13:33:09.409Z,100503.89
2023-11-21T13:35:43.068Z,100506.65
2023-11-21T13:38:18.302Z,100508.61
2023-11-21T13:40:54.977Z,100506.09
2023-11-21T13:43:30.025Z,100512.81
2023-11-21T13:46:09.425Z,100519.38
2023-11-21T13:48:44.296Z,100519.97
2023-11-21T13:51:18.637Z,100522.99
2023-11-21T13:53:53.702Z,100527.19
2023-11-21T13:56:27.807Z,100529.83
2023-11-21T13:59:06.842Z,100532.80
2023-11-21T14:01:55.475Z,100541.10
2023-11-21T14:04:52.401Z,100544.61
2023-11-21T14:07:34.167Z,100546.94
2023-11-21T14:10:14.486Z,100547.27
2023-11-21T14:12:48.079Z,100549.26
2023-11-21T14:15:21.055Z,100554.19
2023-11-21T14:17:52.669Z,100560.30
2023-11-21T14:20:25.366Z,100565.70
2023-11-21T14:22:57.598Z,100574.20
2023-11-21T14:25:30.120Z,100576.35
2023-11-21T14:28:04.391Z,100581.56
2023-11-21T14:30:37.237Z,100587.48
2023-11-21T14:33:12.580Z,100593.56
2023-11-21T14:35:45.701Z,100597.33
2023-11-21T14:38:19.202Z,100602.88
2023-11-21T14:40:51.417Z,100608.08
2023-11-21T14:43:23.517Z,100608.66
2023-11-21T14:45:57.336Z,100609.71
2023-11-21T14:48:43.317Z,100613.73
2023-11-21T14:51:28.602Z,100622.43
2023-11-21T14:54:07.693Z,100620.52
2023-11-21T14:56:40.370Z,100623.34
2023-11-21T14:59:17.450Z,100621.60
2023-11-21T15:01:56.606Z,100624.20
2023-11-21T15:04:37.394Z,100624.58
2023-11-21T15:07:12.324Z,100629.84
2023-11-21T15:09:46.044Z,100635.74
2023-11-21T15:12:20.854Z,100636.09
2023-11-21T15:14:56.576Z,100636.74
2023-11-21T15:17:31.754Z,100638.95
2023-11-21T15:20:07.970Z,100642.41
2023-11-21T15:22:40.917Z,100645.55
2023-11-21T15:25:14.571Z,100644.02
2023-11-21T15:27:48.092Z,100651.48
2023-11-21T15:30:24.461Z,100652.58
2023-11-21T15:32:57.355Z,100655.61
2023-11-21T15:35:29.989Z,100660.84
2023-11-21T15:38:02.629Z,100663.56
2023-11-21T15:40:35.076Z,100666.30
2023-11-21T15:43:08.443Z,100665.75
2023-11-21T15:45:41.835Z,100668.59
2023-11-21T15:48:14.091Z,100670.21
2023-11-21T15:50:47.842Z,100676.48
2023-11-21T15:53:20.795Z,100679.73
2023-11-21T15:55:53.359Z,100687.88
2023-11-21T15:58:26.893Z,100690.73
2023-11-21T16:01:00.291Z,100691.40
2023-11-21T16:03:35.296Z,100692.02
2023-11-21T16:06:11.126Z,100687.83
2023-11-21T16:08:43.334Z,100687.33
2023-11-21T16:11:15.765Z,100693.70
2023-11-21T16:13:49.910Z,100698.38
2023-11-21T16:16:26.220Z,100703.77
2023-11-21T16:18:59.077Z,100710.26
2023-11-21T16:21:29.690Z,100711.85
2023-11-21T16:24:01.804Z,100718.70
2023-11-21T16:26:36.713Z,100719.86
2023-11-21T16:29:08.884Z,100722.19
2023-11-21T16:31:42.386Z,100721.63
2023-11-21T16:34:20.532Z,100724.68
2023-11-21T16:36:53.685Z,100729.21
2023-11-21T16:39:24.349Z,100731.52
2023-11-21T16:41:57.002Z,100734.30
2023-11-21T16:44:30.197Z,100740.27
2023-11-21T16:47:06.721Z,100743.66
2023-11-21T16:49:41.660Z,100751.31
2023-11-21T16:52:14.022Z,100755.29
2023-11-21T16:54:46.137Z,100757.64
2023-11-21T16:57:19.054Z,100762.73
2023-11-21T16:59:52.157Z,100764.64
2023-11-21T17:02:24.871Z,100770.45
2023-11-21T17:04:57.247Z,100777.34
2023-11-21T17:07:30.488Z,100780.95
2023-11-21T17:10:06.320Z,100786.95
2023-11-21T17:12:38.761Z,100788.28
2023-11-21T17:15:13.458Z,100787.48
2023-11-21T17:17:46.318Z,100789.23
2023-11-21T17:20:20.283Z,100789.07
2023-11-21T17:22:52.533Z,100790.45
2023-11-21T17:25:25.133Z,100791.73
2023-11-21T17:27:57.839Z,100792.84
2023-11-21T17:30:30.392Z,100793.04
2023-11-21T17:33:02.920Z,100797.16
2023-11-21T17:35:35.706Z,100798.61
2023-11-21T17:38:06.443Z,100801.65
2023-11-21T17:40:38.727Z,100802.55
2023-11-21T17:43:11.763Z,100797.98
2023-11-21T17:45:44.045Z,100808.55
2023-11-21T17:48:16.551Z,100810.67
2023-11-21T17:50:48.836Z,100810.59
2023-11-21T17:53:21.629Z,100814.15
2023-11-21T17:55:54.612Z,100818.70
2023-11-21T17:58:26.763Z,100825.20
2023-11-21T18:00:59.259Z,100829.61
2023-11-21T18:03:30.010Z,100832.09
2023-11-21T18:06:02.387Z,100836.40
2023-11-21T18:08:40.631Z,100838.67
2023-11-21T18:11:13.166Z,100837.36
2023-11-21T18:13:44.414Z,100841.02
2023-11-21T18:16:20.199Z,100840.88
2023-11-21T18:18:53.078Z,100846.67
2023-11-21T18:21:28.111Z,100848.66
2023-11-21T18:24:02.863Z,100851.46
2023-11-21T18:26:38.258Z,100847.95
2023-11-21T18:29:10.946Z,100851.98
2023-11-21T18:31:44.570Z,100855.98
2023-11-21T18:34:17.062Z,100858.80
2023-11-21T18:36:51.372Z,100861.69
2023-11-21T18:39:23.855Z,100866.38
2023-11-21T18:41:57.997Z,100863.84
2023-11-21T18:44:32.556Z,100870.39
2023-11-21T18:47:12.811Z,100878.39
2023-11-21T18:49:45.437Z,100885.98
2023-11-21T18:52:17.676Z,100893.81
2023-11-21T18:54:50.535Z,100897.34
2023-11-21T18:57:23.187Z,100900.52
2023-11-21T18:59:54.362Z,100897.66
2023-11-21T19:02:27.137Z,100904.31
2023-11-21T19:05:00.692Z,100905.01
2023-11-21T19:07:36.906Z,100907.91
2023-11-21T19:10:11.884Z,100912.89
2023-11-21T19:12:44.077Z,100915.48
2023-11-21T19:15:17.885Z,100926.75
2023-11-21T19:17:50.422Z,100936.84
2023-11-21T19:20:24.422Z,100944.26
2023-11-21T19:22:56.843Z,100945.34
2023-11-21T19:25:29.058Z,100949.52
2023-11-21T19:28:01.337Z,100952.10
2023-11-21T19:30:36.087Z,100959.20
2023-11-21T19:33:08.293Z,100966.95
2023-11-21T19:35:40.651Z,100971.83
2023-11-21T19:38:12.767Z,100977.31
2023-11-21T19:40:45.433Z,100984.19
2023-11-21T19:43:16.637Z,100987.95
2023-11-21T19:45:49.432Z,100993.02
2023-11-21T19:48:24.273Z,100996.89
2023-11-21T19:50:56.581Z,101005.60
2023-11-21T19:53:28.662Z,101010.55
2023-11-21T19:56:02.194Z,101021.00
2023-11-21T19:58:34.589Z,101025.77
2023-11-21T20:01:06.961Z,101030.02
2023-11-21T20:03:40.429Z,101033.60
2023-11-21T20:06:13.120Z,101038.83
2023-11-21T20:08:47.535Z,101039.62
2023-11-21T20:11:24.149Z,101039.63
2023-11-21T20:13:57.119Z,101040.95
2023-11-21T20:16:29.682Z,101049.95
2023-11-21T20:19:03.407Z,101054.73
2023-11-21T20:21:35.863Z,101056.47
2023-11-21T20:24:07.867Z,101067.40
2023-11-21T20:26:42.858Z,101075.30
2023-11-21T20:29:15.300Z,101073.95
2023-11-21T20:31:47.485Z,101080.34
2023-11-21T20:34:21.753Z,101081.54
2023-11-21T20:36:55.919Z,101084.46
2023-11-21T20:39:27.997Z,101077.38
2023-11-21T20:42:00.272Z,101086.31
2023-11-21T20:44:32.987Z,101089.80
2023-11-21T20:47:12.105Z,101097.59
2023-11-21T20:49:48.670Z,101097.67
2023-11-21T20:52:21.661Z,101105.71
2023-11-21T20:54:54.097Z,101103.58
2023-11-21T20:57:25.657Z,101105.42
2023-11-21T20:59:59.125Z,101104.42
2023-11-21T21:02:32.367Z,101103.02
2023-11-21T21:05:07.428Z,101108.17
2023-11-21T21:07:40.002Z,101111.02
2023-11-21T21:10:13.142Z,101114.85
2023-11-21T21:12:45.270Z,101119.27
2023-11-21T21:15:20.589Z,101119.36
2023-11-21T21:17:53.034Z,101122.06
2023-11-21T21:20:25.386Z,101123.98
2023-11-21T21:22:58.546Z,101126.51
2023-11-21T21:25:31.328Z,101131.89
2023-11-21T21:28:02.013Z,101140.36
2023-11-21T21:30:34.163Z,101147.34
2023-11-21T21:33:07.223Z,101148.61
2023-11-21T21:35:39.490Z,101152.41
2023-11-21T21:38:12.599Z,101153.00
2023-11-21T21:40:45.157Z,101153.41
2023-11-21T21:43:17.830Z,101157.06
2023-11-21T21:45:48.387Z,101159.04
2023-11-21T21:48:20.555Z,101162.83
2023-11-21T21:50:52.848Z,101168.76
2023-11-21T21:53:25.093Z,101176.10
2023-11-21T21:55:57.494Z,101184.31
2023-11-21T21:58:30.627Z,101192.48
2023-11-21T22:01:04.793Z,101199.52
2023-11-21T22:03:37.432Z,101201.50
2023-11-21T22:06:10.446Z,101206.64
2023-11-21T22:08:41.890Z,101208.95
2023-11-21T22:11:14.187Z,101211.11
2023-11-21T22:13:46.274Z,101213.07
2023-11-21T22:16:22.248Z,101213.08
2023-11-21T22:18:54.351Z,101215.04
2023-11-21T22:21:27.302Z,101220.06
2023-11-21T22:23:59.539Z,101220.87
2023-11-21T22:26:31.597Z,101222.53
2023-11-21T22:29:05.463Z,101220.98
2023-11-21T22:31:41.638Z,101224.05
2023-11-21T22:34:14.709Z,101227.02
2023-11-21T22:36:46.712Z,101230.95
2023-11-21T22:39:18.884Z,101232.63
2023-11-21T22:41:52.190Z,101232.82
2023-11-21T22:44:24.472Z,101237.81
2023-11-21T22:47:01.854Z,101238.27
2023-11-21T22:49:34.727Z,101244.40
2023-11-21T22:52:08.262Z,101242.36
2023-11-21T22:54:40.306Z,101242.48
2023-11-21T22:57:12.362Z,101242.77
2023-11-21T22:59:44.349Z,101242.48
2023-11-21T23:02:17.082Z,101249.44
2023-11-21T23:04:49.331Z,101249.20
2023-11-21T23:07:22.611Z,101250.17
2023-11-21T23:09:54.685Z,101252.70
2023-11-21T23:12:28.133Z,101258.46
2023-11-21T23:15:00.325Z,101259.23
2023-11-21T23:17:33.010Z,101262.27
2023-11-21T23:20:10.022Z,101269.05
2023-11-21T23:22:42.030Z,101273.30
2023-11-21T23:25:14.069Z,101268.00
2023-11-21T23:27:46.483Z,101273.63
2023-11-21T23:30:18.477Z,101273.80
2023-11-21T23:32:50.865Z,101277.02
2023-11-21T23:35:23.027Z,101271.83
2023-11-21T23:37:55.587Z,101272.02
2023-11-21T23:40:27.795Z,101275.15
2023-11-21T23:43:00.475Z,101274.02
2023-11-21T23:45:31.141Z,101280.77
2023-11-21T23:48:04.017Z,101286.77
2023-11-21T23:50:36.492Z,101291.16
2023-11-21T23:53:08.516Z,101293.88
2023-11-21T23:55:40.651Z,101294.80
2023-11-21T23:58:12.891Z,101296.56
